Time;durP1;ratioP1;P1;durP2;ratioP2;P2;SDS_P1;SDS_P2;PMS_P1;PMS_P2;Temp;Humidity;BMP_temperature;BMP_pressure;BME280_temperature;BME280_humidity;BME280_pressure;Samples;Min_cycle;Max_cycle;Signal;HPM_P1;HPM_P2
2022/10/23 00:00:08;;;;;;;5.47;2.30;;;;;;;14.33;51.35;101089.78;5052996;28;20103;-72
2022/10/23 00:02:36;;;;;;;4.13;2.17;;;;;;;14.31;51.58;101097.31;5047272;28;20063;-72
2022/10/23 00:05:04;;;;;;;3.33;2.13;;;;;;;14.29;51.85;101080.94;5035771;28;20049;-72
2022/10/23 00:07:33;;;;;;;4.90;2.30;;;;;;;14.30;51.85;101077.16;5055413;28;20687;-71
2022/10/23 00:10:01;;;;;;;5.38;2.38;;;;;;;14.27;51.45;101082.13;5055114;28;20449;-72
2022/10/23 00:12:29;;;;;;;6.30;2.35;;;;;;;14.26;51.54;101081.28;5053871;28;20461;-72
2022/10/23 00:14:57;;;;;;;4.78;2.33;;;;;;;14.24;51.86;101079.69;5052555;28;20375;-72
2022/10/23 00:17:25;;;;;;;5.05;2.47;;;;;;;14.24;51.30;101076.94;5054645;28;20223;-72
2022/10/23 00:19:53;;;;;;;4.30;2.40;;;;;;;14.22;51.80;101078.97;5042428;28;20044;-72
2022/10/23 00:22:20;;;;;;;5.38;2.35;;;;;;;14.20;51.77;101068.09;5055010;28;20049;-73
2022/10/23 00:24:50;;;;;;;4.95;2.60;;;;;;;14.21;51.52;101077.22;5056645;28;20044;-72
2022/10/23 00:27:17;;;;;;;7.32;2.58;;;;;;;14.18;51.84;101081.16;5050168;28;20041;-72
2022/10/23 00:29:45;;;;;;;5.07;2.08;;;;;;;14.17;51.54;101075.81;5055175;28;20044;-72
2022/10/23 00:32:13;;;;;;;4.97;2.17;;;;;;;14.16;51.52;101074.94;5051142;28;20057;-72
2022/10/23 00:34:41;;;;;;;4.57;2.33;;;;;;;14.16;51.87;101074.06;5045175;28;20045;-72
2022/10/23 00:37:09;;;;;;;5.03;2.30;;;;;;;14.15;51.33;101075.97;5048605;28;20076;-72
2022/10/23 00:39:37;;;;;;;4.45;2.20;;;;;;;14.14;51.47;101076.09;5058673;28;20436;-72
2022/10/23 00:42:06;;;;;;;5.18;2.03;;;;;;;14.14;51.39;101082.47;5058815;28;20044;-72
2022/10/23 00:45:14;;;;;;;4.63;2.20;;;;;;;14.12;51.92;101072.63;5038641;28;20053;-72
2022/10/23 00:47:42;;;;;;;5.43;2.00;;;;;;;14.08;52.03;101073.97;5052070;28;20136;-72
2022/10/23 00:50:10;;;;;;;5.90;2.30;;;;;;;14.08;51.60;101077.59;5051871;28;20429;-72
2022/10/23 00:52:42;;;;;;;5.05;2.65;;;;;;;14.10;51.94;101069.19;5037993;28;20060;-72
2022/10/23 00:55:10;;;;;;;3.33;1.95;;;;;;;14.04;51.41;101072.53;5063348;28;20036;-72
2022/10/23 00:57:42;;;;;;;3.45;1.70;;;;;;;14.06;51.44;101063.09;5047402;28;20055;-72
2022/10/23 01:00:16;;;;;;;3.17;1.95;;;;;;;14.05;51.38;101061.38;5054681;28;20037;-72
2022/10/23 01:02:43;;;;;;;5.72;2.08;;;;;;;14.01;51.49;101057.19;5029629;28;20168;-72
2022/10/23 01:05:13;;;;;;;4.50;1.80;;;;;;;13.99;51.62;101050.97;5041801;28;20045;-73
2022/10/23 01:07:50;;;;;;;4.95;2.00;;;;;;;14.02;51.34;101049.81;5043804;28;20133;-72
2022/10/23 01:10:25;;;;;;;5.03;2.30;;;;;;;13.99;51.85;101060.09;5032508;28;20111;-72
2022/10/23 01:13:02;;;;;;;4.05;2.00;;;;;;;13.98;51.37;101054.75;5057587;28;20520;-72
2022/10/23 01:15:37;;;;;;;5.45;1.98;;;;;;;13.96;51.93;101049.38;5040375;28;20115;-72
2022/10/23 01:18:11;;;;;;;3.90;1.80;;;;;;;13.96;51.99;101051.25;5044122;28;20072;-72
2022/10/23 01:20:48;;;;;;;4.90;1.95;;;;;;;13.95;52.06;101055.03;5034099;28;20414;-72
2022/10/23 01:23:47;;;;;;;3.30;1.90;;;;;;;13.93;51.81;101054.34;5034890;28;20090;-72
2022/10/23 01:26:29;;;;;;;4.60;2.08;;;;;;;13.95;52.12;101057.78;5050927;28;20048;-72
2022/10/23 01:31:45;;;;;;;3.42;1.90;;;;;;;13.95;51.75;101053.16;5060249;28;20056;-75
2022/10/23 01:34:16;;;;;;;5.63;2.30;;;;;;;13.95;51.64;101046.78;5052982;28;20141;-75
2022/10/23 01:36:48;;;;;;;4.88;2.03;;;;;;;13.95;51.59;101041.28;5064725;28;20037;-75
2022/10/23 01:39:22;;;;;;;3.58;1.80;;;;;;;13.93;52.08;101035.94;5063576;28;20064;-75
2022/10/23 01:41:52;;;;;;;5.20;2.10;;;;;;;13.93;51.95;101030.44;5050181;28;20059;-75
2022/10/23 01:44:32;;;;;;;4.85;2.00;;;;;;;13.92;51.92;101020.47;5049666;28;20040;-74
2022/10/23 01:47:03;;;;;;;3.78;1.85;;;;;;;13.92;51.54;101022.34;5047744;28;20127;-75
2022/10/23 01:49:38;;;;;;;3.83;1.63;;;;;;;13.91;51.56;101023.34;5051560;28;20045;-75
2022/10/23 01:52:11;;;;;;;4.20;1.73;;;;;;;13.90;51.87;101016.13;5050819;28;20044;-73
2022/10/23 01:54:44;;;;;;;3.85;1.70;;;;;;;13.89;51.74;101018.00;5050507;28;20043;-73
2022/10/23 01:57:17;;;;;;;2.80;1.73;;;;;;;13.90;52.15;101018.88;5043803;28;20036;-75
2022/10/23 01:59:49;;;;;;;3.15;1.73;;;;;;;13.88;52.19;101020.91;5050561;28;20040;-75
2022/10/23 02:02:22;;;;;;;4.88;1.80;;;;;;;13.88;52.19;101015.38;5048918;28;20051;-75
2022/10/23 02:05:00;;;;;;;4.57;2.15;;;;;;;13.91;51.78;101006.84;5050422;28;20056;-75
2022/10/23 02:07:28;;;;;;;4.18;1.85;;;;;;;13.89;51.95;101003.38;5058871;28;20094;-75
2022/10/23 02:09:56;;;;;;;4.60;1.90;;;;;;;13.90;52.57;100997.72;5063115;28;20489;-75
2022/10/23 02:12:36;;;;;;;5.50;1.95;;;;;;;13.93;52.01;100993.81;5074507;28;20045;-75
2022/10/23 02:18:39;;;;;;;4.03;1.83;;;;;;;13.90;52.05;100991.34;5058136;28;20051;-75
2022/10/23 02:21:12;;;;;;;3.53;1.90;;;;;;;13.90;52.41;100980.34;5045725;28;20057;-75
2022/10/23 02:23:48;;;;;;;2.78;1.88;;;;;;;13.90;52.33;100985.84;5045593;28;20123;-75
2022/10/23 02:26:27;;;;;;;2.55;1.58;;;;;;;13.88;52.17;100980.50;5079942;28;20295;-75
2022/10/23 02:29:00;;;;;;;4.35;1.90;;;;;;;13.90;51.70;100985.84;5058023;28;20405;-75
2022/10/23 02:31:31;;;;;;;4.20;1.80;;;;;;;13.85;52.25;100975.31;5044993;28;20094;-75
2022/10/23 02:34:00;;;;;;;5.25;2.30;;;;;;;13.86;52.26;100967.94;5044647;28;20049;-75
2022/10/23 02:36:28;;;;;;;4.72;1.77;;;;;;;13.83;52.27;100960.84;5038345;28;20444;-75
2022/10/23 02:38:57;;;;;;;3.13;1.67;;;;;;;13.84;52.10;100962.56;5064062;28;20067;-75
2022/10/23 02:41:44;;;;;;;3.83;2.08;;;;;;;13.84;51.99;100965.34;5063055;28;20068;-75
2022/10/23 02:44:23;;;;;;;4.32;2.08;;;;;;;13.85;52.02;100955.19;5044505;28;20057;-74
2022/10/23 02:46:56;;;;;;;4.18;2.05;;;;;;;13.84;52.59;100954.31;5039798;28;20123;-75
2022/10/23 02:49:34;;;;;;;4.40;2.08;;;;;;;13.84;52.53;100953.47;5044540;28;20102;-75
2022/10/23 02:52:12;;;;;;;4.22;2.10;;;;;;;13.84;52.51;100950.72;5068515;28;20099;-75
2022/10/23 02:54:54;;;;;;;4.20;2.10;;;;;;;13.85;52.80;100947.81;5049866;28;20497;-75
2022/10/23 02:57:28;;;;;;;3.85;1.90;;;;;;;13.82;52.66;100953.59;5042861;28;20048;-75
2022/10/23 03:00:04;;;;;;;3.63;2.08;;;;;;;13.85;52.51;100947.81;5046683;28;20049;-75
2022/10/23 03:02:37;;;;;;;4.13;1.85;;;;;;;13.86;52.77;100954.19;5063644;28;20127;-74
2022/10/23 03:05:11;;;;;;;3.22;1.95;;;;;;;13.86;52.23;100952.25;5041995;28;20045;-75
2022/10/23 03:07:39;;;;;;;;;;;;;;;13.59;53.33;100939.41;5058624;28;20059;-75
2022/10/23 03:10:10;;;;;;;3.60;1.50;;;;;;;13.80;52.22;100944.63;5051695;28;19978;-75
2022/10/23 03:12:39;;;;;;;3.75;1.88;;;;;;;13.85;52.56;100942.31;5066731;28;20145;-75
2022/10/23 03:15:10;;;;;;;3.28;1.90;;;;;;;13.85;52.53;100936.81;5050559;28;20421;-75
2022/10/23 03:17:38;;;;;;;4.25;1.70;;;;;;;13.86;52.18;100935.75;5067229;28;20037;-75
2022/10/23 03:20:09;;;;;;;4.47;1.90;;;;;;;13.88;52.63;100935.59;5039587;28;20037;-74
2022/10/23 03:22:37;;;;;;;5.18;1.77;;;;;;;13.85;52.71;100920.31;5069743;28;20056;-74
2022/10/23 03:25:07;;;;;;;2.70;1.67;;;;;;;13.86;52.26;100921.16;5050347;28;20390;-74
2022/10/23 03:27:36;;;;;;;2.78;1.65;;;;;;;13.85;52.34;100911.19;5068198;28;20166;-74
2022/10/23 03:30:07;;;;;;;4.40;2.00;;;;;;;13.85;52.25;100902.91;5051637;28;20048;-74
2022/10/23 03:32:37;;;;;;;4.00;1.95;;;;;;;13.85;52.76;100900.16;5050986;28;20143;-75
2022/10/23 03:35:06;;;;;;;5.78;1.90;;;;;;;13.85;52.76;100889.16;5043414;28;20052;-75
2022/10/23 03:37:35;;;;;;;4.72;1.90;;;;;;;13.85;52.30;100895.53;5039935;28;20052;-75
2022/10/23 03:40:04;;;;;;;4.07;1.60;;;;;;;13.84;52.28;100893.81;5041653;28;20136;-74
2022/10/23 03:42:34;;;;;;;4.25;2.03;;;;;;;13.83;52.79;100891.19;5067334;28;20070;-74
2022/10/23 03:45:02;;;;;;;5.78;1.67;;;;;;;13.82;52.32;100890.34;5048913;28;20049;-75
2022/10/23 03:47:31;;;;;;;3.97;1.75;;;;;;;13.82;52.42;100890.34;5056981;28;20418;-74
2022/10/23 03:50:00;;;;;;;3.00;1.90;;;;;;;13.82;52.81;100895.84;5053361;28;20474;-74
2022/10/23 03:52:28;;;;;;;4.05;1.70;;;;;;;13.82;52.89;100893.09;5050192;28;20132;-75
2022/10/23 03:54:57;;;;;;;2.67;1.55;;;;;;;13.84;52.47;100907.56;5047659;28;20514;-75
2022/10/23 03:57:25;;;;;;;4.70;1.77;;;;;;;13.83;52.71;100907.72;5067775;28;20061;-75
2022/10/23 03:59:53;;;;;;;3.08;1.80;;;;;;;13.81;52.34;100905.09;5053582;28;20140;-74
2022/10/23 04:02:21;;;;;;;3.28;1.73;;;;;;;13.83;53.00;100908.56;5043937;28;20055;-75
2022/10/23 04:04:49;;;;;;;4.00;1.70;;;;;;;13.83;52.91;100905.81;5047846;28;20072;-75
2022/10/23 04:07:16;;;;;;;3.47;1.77;;;;;;;13.83;52.98;100911.31;5057698;28;20528;-74
2022/10/23 04:09:45;;;;;;;4.07;1.80;;;;;;;13.83;52.87;100905.81;5047372;28;20041;-74
2022/10/23 04:12:17;;;;;;;3.03;1.63;;;;;;;13.85;52.48;100909.28;5049823;28;20127;-74
2022/10/23 04:14:45;;;;;;;4.00;1.63;;;;;;;13.82;52.85;100906.84;5050373;28;20051;-75
2022/10/23 04:17:13;;;;;;;2.92;1.95;;;;;;;13.83;52.90;100900.31;5076698;28;20045;-75
2022/10/23 04:19:42;;;;;;;3.22;1.70;;;;;;;13.82;52.87;100898.59;5051692;28;20049;-75
2022/10/23 04:22:10;;;;;;;3.83;1.80;;;;;;;13.83;52.38;100897.56;5047632;28;20052;-75
2022/10/23 04:24:44;;;;;;;3.40;1.63;;;;;;;13.80;52.76;100895.13;5050632;28;20537;-75
2022/10/23 04:27:17;;;;;;;3.10;1.80;;;;;;;13.83;52.49;100894.81;5049357;28;20049;-74
2022/10/23 04:29:45;;;;;;;4.03;1.80;;;;;;;13.80;52.61;100891.50;5050182;28;20048;-75
2022/10/23 04:32:13;;;;;;;5.28;2.13;;;;;;;13.80;52.97;100889.63;5068254;28;20083;-74
2022/10/23 04:34:43;;;;;;;4.30;1.80;;;;;;;13.79;52.75;100881.50;5052875;28;20620;-74
2022/10/23 04:37:11;;;;;;;3.78;1.77;;;;;;;13.79;52.94;100885.13;5075970;28;20133;-74
2022/10/23 04:39:39;;;;;;;3.47;1.52;;;;;;;13.78;52.58;100885.28;5049893;28;20037;-75
2022/10/23 04:42:07;;;;;;;4.20;1.95;;;;;;;13.77;52.59;100880.81;5048920;28;20049;-75
2022/10/23 04:44:36;;;;;;;3.90;1.90;;;;;;;13.78;52.44;100877.03;5045003;28;20067;-75
2022/10/23 04:47:04;;;;;;;3.33;1.77;;;;;;;13.75;52.86;100869.97;5062390;28;20057;-75
2022/10/23 04:49:36;;;;;;;3.28;1.67;;;;;;;13.73;52.56;100871.13;5049143;28;20072;-74
2022/10/23 04:52:23;;;;;;;3.28;1.60;;;;;;;13.72;52.83;100874.91;5060363;28;20097;-75
2022/10/23 04:55:09;;;;;;;3.25;1.67;;;;;;;13.72;53.16;100863.91;5057354;28;20166;-75
2022/10/23 04:57:44;;;;;;;2.80;1.65;;;;;;;13.71;53.06;100863.03;5051249;28;20059;-75
2022/10/23 05:00:15;;;;;;;4.80;1.92;;;;;;;13.74;53.20;100861.88;5048365;28;20076;-74
2022/10/23 05:02:49;;;;;;;4.95;1.80;;;;;;;13.71;53.17;100867.66;5051611;28;20043;-75
2022/10/23 05:05:17;;;;;;;3.90;1.70;;;;;;;13.73;52.92;100857.38;5048331;28;20045;-74
2022/10/23 05:08:04;;;;;;;3.85;1.85;;;;;;;13.69;53.23;100853.22;5060568;28;20133;-74
2022/10/23 05:10:47;;;;;;;3.83;1.70;;;;;;;13.68;52.65;100852.38;5049530;28;20052;-75
2022/10/23 05:13:16;;;;;;;3.17;1.77;;;;;;;13.68;53.02;100852.38;5045717;28;20820;-74
2022/10/23 05:15:47;;;;;;;4.57;1.90;;;;;;;13.69;53.26;100851.34;5047385;28;20489;-74
2022/10/23 05:18:20;;;;;;;;;;;;;;;13.40;53.83;100848.72;5069870;28;20047;-74
2022/10/23 05:20:51;;;;;;;2.38;1.33;;;;;;;13.63;52.86;100841.81;5051027;28;19920;-75
2022/10/23 05:23:24;;;;;;;4.13;1.88;;;;;;;13.66;53.16;100846.16;5066968;28;20557;-75
2022/10/23 05:25:56;;;;;;;5.55;1.83;;;;;;;13.64;53.18;100831.69;5052098;28;20057;-74
2022/10/23 05:28:23;;;;;;;3.28;1.60;;;;;;;13.63;52.76;100832.69;5077999;28;20048;-75
2022/10/23 05:30:53;;;;;;;2.15;1.38;;;;;;;13.66;52.91;100831.53;5045858;28;20087;-75
2022/10/23 05:33:25;;;;;;;4.18;1.80;;;;;;;13.63;53.36;100828.06;5049751;28;20548;-75
2022/10/23 05:35:53;;;;;;;4.40;1.50;;;;;;;13.63;53.22;100821.69;5066330;28;20053;-75
2022/10/23 05:38:23;;;;;;;3.47;1.70;;;;;;;13.64;53.01;100817.91;5045660;28;20072;-75
2022/10/23 05:40:51;;;;;;;2.60;1.50;;;;;;;13.62;53.06;100818.06;5050587;28;20068;-75
2022/10/23 05:43:20;;;;;;;4.22;1.65;;;;;;;13.63;53.04;100816.19;5047622;28;20037;-75
2022/10/23 05:46:04;;;;;;;3.88;1.60;;;;;;;13.63;53.14;100806.06;5043290;28;20058;-75
2022/10/23 05:48:32;;;;;;;3.30;1.80;;;;;;;13.59;53.48;100810.16;5062046;28;20057;-75
2022/10/23 05:51:22;;;;;;;2.80;1.58;;;;;;;13.61;52.93;100804.50;5062266;28;20302;-75
2022/10/23 05:53:55;;;;;;;4.47;1.90;;;;;;;13.58;53.41;100808.41;5076533;28;20059;-75
2022/10/23 05:56:34;;;;;;;4.20;1.60;;;;;;;13.59;53.07;100804.66;5062006;28;20053;-74
2022/10/23 05:59:09;;;;;;;3.78;1.63;;;;;;;13.58;53.48;100813.91;5047713;28;20105;-74
2022/10/23 06:02:01;;;;;;;3.35;1.40;;;;;;;13.59;53.04;100803.78;5059774;28;20049;-75
2022/10/23 06:04:44;;;;;;;5.68;1.70;;;;;;;13.56;53.23;100796.69;5051450;28;20124;-75
2022/10/23 06:07:35;;;;;;;2.75;1.45;;;;;;;13.56;53.57;100795.81;5046067;28;20062;-74
2022/10/23 06:10:06;;;;;;;3.60;1.60;;;;;;;13.56;53.51;100788.47;5044728;28;20531;-74
2022/10/23 06:12:39;;;;;;;4.07;1.70;;;;;;;13.57;53.35;100781.06;5049426;28;20063;-74
2022/10/23 06:15:10;;;;;;;3.22;1.52;;;;;;;13.58;53.16;100780.91;5081058;28;20043;-75
2022/10/23 06:18:05;;;;;;;3.28;1.58;;;;;;;13.57;53.28;100781.94;5057279;28;20048;-75
2022/10/23 06:20:37;;;;;;;;;;;;;;;13.32;54.57;100779.91;5049231;28;20074;-74
2022/10/23 06:23:10;;;;;;;;;;;;;;;13.27;54.23;100779.50;5061497;28;19924;-75
2022/10/23 06:26:19;;;;;;;3.33;1.55;;;;;;;13.53;53.47;100783.22;4988795;28;20458;-75
2022/10/23 06:29:12;;;;;;;3.42;1.50;;;;;;;13.54;53.21;100779.44;4981069;28;20058;-75
2022/10/23 06:31:42;;;;;;;2.97;1.35;;;;;;;13.53;53.07;100774.97;5037358;28;20049;-74
2022/10/23 06:34:13;;;;;;;4.25;1.60;;;;;;;13.57;53.10;100773.69;5050317;28;20060;-74
2022/10/23 06:36:41;;;;;;;4.85;1.80;;;;;;;13.55;53.29;100772.06;5044740;28;20048;-74
2022/10/23 06:39:28;;;;;;;3.58;1.70;;;;;;;13.54;53.49;100782.19;5062782;28;20060;-74
2022/10/23 06:42:37;;;;;;;3.60;1.50;;;;;;;13.52;53.91;100783.41;5024655;28;20053;-75
2022/10/23 06:45:32;;;;;;;2.75;1.50;;;;;;;13.51;53.29;100778.91;5007605;28;20045;-74
2022/10/23 06:48:23;;;;;;;3.08;1.38;;;;;;;13.51;53.47;100782.53;5046975;28;20509;-74
2022/10/23 06:51:05;;;;;;;5.07;1.33;;;;;;;13.56;53.42;100771.06;5046132;28;20040;-74
2022/10/23 06:53:40;;;;;;;4.38;1.60;;;;;;;13.54;53.43;100773.94;5032821;28;20084;-75
2022/10/23 06:56:27;;;;;;;2.83;1.30;;;;;;;13.55;53.75;100770.19;5046119;28;20102;-75
2022/10/23 06:58:56;;;;;;;3.00;1.50;;;;;;;13.56;53.49;100769.22;5070004;28;20541;-75
2022/10/23 07:01:24;;;;;;;3.17;1.58;;;;;;;13.59;54.05;100760.66;5027737;28;20078;-75
2022/10/23 07:03:54;;;;;;;3.20;1.83;;;;;;;13.61;53.75;100760.50;5042531;28;20396;-75
2022/10/23 07:06:27;;;;;;;5.25;1.85;;;;;;;13.61;53.72;100758.59;5006659;28;20060;-75
2022/10/23 07:08:55;;;;;;;2.75;1.60;;;;;;;13.63;53.89;100764.81;5058256;28;20040;-75
2022/10/23 07:11:54;;;;;;;4.35;1.48;;;;;;;13.64;54.10;100768.41;5039812;28;20045;-75
2022/10/23 07:14:31;;;;;;;3.42;1.50;;;;;;;13.67;54.10;100767.25;5048685;28;20534;-75
2022/10/23 07:17:01;;;;;;;2.72;1.50;;;;;;;13.68;53.66;100767.09;5019565;28;20102;-74
2022/10/23 07:19:29;;;;;;;3.45;1.48;;;;;;;13.70;53.59;100762.28;5047636;28;20501;-75
2022/10/23 07:22:01;;;;;;;3.90;1.50;;;;;;;13.73;53.68;100769.38;5018299;28;20410;-74
2022/10/23 07:24:43;;;;;;;3.20;1.40;;;;;;;13.71;54.07;100768.66;5036773;28;20241;-75
2022/10/23 07:27:25;;;;;;;2.85;1.30;;;;;;;13.73;53.51;100774.88;5032414;28;20047;-74
2022/10/23 07:29:56;;;;;;;3.88;1.70;;;;;;;13.75;54.08;100772.84;5060143;28;20075;-74
2022/10/23 07:32:27;;;;;;;4.10;1.70;;;;;;;13.76;53.81;100755.31;5064362;28;20060;-74
2022/10/23 07:35:08;;;;;;;3.38;1.58;;;;;;;13.78;53.87;100756.88;5067512;28;20049;-75
2022/10/23 07:37:40;;;;;;;2.97;1.55;;;;;;;13.79;53.60;100750.34;5044296;28;20138;-74
2022/10/23 07:40:10;;;;;;;2.85;1.55;;;;;;;13.80;53.98;100751.22;5048870;28;20075;-74
2022/10/23 07:42:43;;;;;;;4.18;1.55;;;;;;;13.83;53.91;100742.66;5041617;28;20048;-74
2022/10/23 07:45:11;;;;;;;3.53;1.80;;;;;;;13.85;53.84;100746.13;5046042;28;20041;-74
2022/10/23 07:47:42;;;;;;;3.35;1.80;;;;;;;13.86;54.21;100747.84;5060992;28;20408;-74
2022/10/23 07:50:13;;;;;;;4.03;1.80;;;;;;;13.87;53.79;100744.03;5044581;28;20049;-74
2022/10/23 07:52:42;;;;;;;4.10;1.65;;;;;;;13.91;54.08;100735.34;5064507;28;20052;-74
2022/10/23 07:55:12;;;;;;;5.57;1.60;;;;;;;13.92;53.83;100738.94;5064433;28;20401;-74
2022/10/23 07:57:50;;;;;;;2.08;1.30;;;;;;;13.95;53.91;100733.09;5050522;28;20044;-74
2022/10/23 08:00:27;;;;;;;4.30;1.77;;;;;;;13.97;54.04;100733.81;5027556;28;20394;-75
2022/10/23 08:03:05;;;;;;;3.58;1.60;;;;;;;14.00;54.55;100733.53;5054056;28;20083;-74
2022/10/23 08:05:33;;;;;;;3.25;1.95;;;;;;;14.03;54.16;100722.16;5026826;28;20049;-74
2022/10/23 08:08:04;;;;;;;2.78;1.42;;;;;;;14.09;54.47;100726.19;5050208;28;20045;-74
2022/10/23 08:10:33;;;;;;;2.92;1.48;;;;;;;14.12;54.03;100721.22;5052496;28;20041;-74
2022/10/23 08:13:01;;;;;;;2.97;1.38;;;;;;;14.18;54.34;100730.72;5052819;28;20060;-74
2022/10/23 08:15:51;;;;;;;4.00;1.30;;;;;;;14.23;54.49;100734.72;5051673;28;20052;-74
2022/10/23 08:18:44;;;;;;;3.25;1.50;;;;;;;14.27;54.14;100724.25;5062887;28;20044;-74
2022/10/23 08:21:12;;;;;;;2.38;1.30;;;;;;;14.33;54.17;100726.38;5079567;28;20056;-73
2022/10/23 08:23:41;;;;;;;3.42;1.70;;;;;;;14.42;54.46;100727.28;5043816;28;20063;-73
2022/10/23 08:26:10;;;;;;;3.00;1.42;;;;;;;14.49;54.10;100726.50;5023346;28;20439;-70
2022/10/23 08:28:38;;;;;;;3.05;1.50;;;;;;;14.55;54.10;100734.09;5053314;28;20056;-75
2022/10/23 08:31:08;;;;;;;3.35;1.48;;;;;;;14.63;54.23;100736.91;5051193;28;20391;-74
2022/10/23 08:33:37;;;;;;;2.00;1.30;;;;;;;14.72;53.96;100729.53;5045962;28;20419;-74
2022/10/23 08:36:15;;;;;;;4.95;1.48;;;;;;;14.80;54.22;100729.56;5060095;28;20099;-74
2022/10/23 08:38:44;;;;;;;2.85;1.50;;;;;;;14.89;53.53;100723.09;5066092;28;20048;-74
2022/10/23 08:41:35;;;;;;;2.92;1.20;;;;;;;14.98;52.71;100738.63;5076799;28;20390;-74
2022/10/23 08:44:18;;;;;;;3.33;1.40;;;;;;;15.04;53.42;100729.69;5051169;28;20048;-74
2022/10/23 08:46:52;;;;;;;2.40;1.55;;;;;;;15.13;53.06;100731.44;5075587;28;20298;-74
2022/10/23 08:49:54;;;;;;;2.63;1.40;;;;;;;15.20;53.04;100720.59;5062273;28;20080;-74
2022/10/23 08:52:27;;;;;;;2.80;1.27;;;;;;;15.28;52.58;100722.50;5046015;28;20037;-74
2022/10/23 08:55:04;;;;;;;2.00;1.38;;;;;;;15.38;52.38;100718.63;5064935;28;20123;-74
2022/10/23 08:57:39;;;;;;;2.75;1.20;;;;;;;15.42;52.27;100711.72;5068160;28;20060;-74
2022/10/23 09:00:14;;;;;;;2.85;1.48;;;;;;;15.49;52.09;100709.16;5059124;28;20110;-74
2022/10/23 09:02:45;;;;;;;3.10;1.30;;;;;;;15.53;52.30;100710.53;5065625;28;20063;-74
2022/10/23 09:05:17;;;;;;;3.75;1.27;;;;;;;15.63;52.32;100707.63;5069382;28;20033;-75
2022/10/23 09:07:59;;;;;;;3.92;1.40;;;;;;;15.65;51.11;100697.28;5059422;28;20480;-73
2022/10/23 09:10:46;;;;;;;3.03;1.48;;;;;;;15.71;50.93;100691.94;5065155;28;20060;-74
2022/10/23 09:13:40;;;;;;;2.25;1.10;;;;;;;15.72;50.72;100685.38;5065731;28;20597;-74
2022/10/23 09:16:23;;;;;;;1.70;1.10;;;;;;;15.82;50.51;100680.56;5049765;28;20127;-75
2022/10/23 09:18:52;;;;;;;2.05;1.10;;;;;;;15.85;51.54;100671.91;5068763;28;20047;-75
2022/10/23 09:21:20;;;;;;;2.60;1.48;;;;;;;15.90;51.21;100671.41;5067927;28;20402;-75
2022/10/23 09:23:48;;;;;;;3.97;1.50;;;;;;;15.94;51.48;100656.22;5066791;28;20386;-73
2022/10/23 09:26:18;;;;;;;2.53;1.25;;;;;;;16.02;50.54;100647.94;5061823;28;20398;-75
2022/10/23 09:28:48;;;;;;;2.53;1.30;;;;;;;16.05;50.59;100666.03;5063848;28;20517;-75
2022/10/23 09:31:18;;;;;;;3.15;1.58;;;;;;;16.08;50.47;100657.44;5058965;28;20054;-75
2022/10/23 09:33:57;;;;;;;3.45;1.15;;;;;;;16.15;49.54;100642.75;5058595;28;20113;-73
2022/10/23 09:36:28;;;;;;;3.65;1.30;;;;;;;16.16;50.45;100644.47;5050602;28;20465;-70
2022/10/23 09:38:58;;;;;;;2.22;1.10;;;;;;;16.19;50.43;100644.13;5064679;28;20049;-75
2022/10/23 09:41:34;;;;;;;2.20;1.15;;;;;;;16.23;49.96;100645.53;5048490;28;20033;-75
2022/10/23 09:44:11;;;;;;;2.00;1.20;;;;;;;16.25;49.79;100635.13;5059556;28;20417;-74
2022/10/23 09:46:41;;;;;;;3.47;1.50;;;;;;;16.27;50.17;100643.25;5064730;28;20120;-75
2022/10/23 09:49:17;;;;;;;2.08;1.40;;;;;;;16.31;49.37;100644.63;5065727;28;20043;-74
2022/10/23 09:52:21;;;;;;;1.95;1.10;;;;;;;16.30;49.19;100629.09;5050065;28;20138;-74
2022/10/23 09:54:53;;;;;;;2.90;1.30;;;;;;;16.35;50.06;100625.78;5063559;28;20036;-75
2022/10/23 09:57:28;;;;;;;2.67;1.20;;;;;;;16.39;49.49;100616.13;5063832;28;20056;-74
2022/10/23 09:59:59;;;;;;;3.38;1.40;;;;;;;16.38;49.69;100612.50;5058661;28;20044;-75
2022/10/23 10:02:38;;;;;;;2.83;1.40;;;;;;;16.40;49.93;100615.09;5058819;28;20472;-76
2022/10/23 10:05:28;;;;;;;1.98;1.13;;;;;;;16.46;49.43;100612.47;5056177;28;20105;-75
2022/10/23 10:08:03;;;;;;;2.70;1.20;;;;;;;16.50;49.57;100610.19;5062321;28;20075;-75
2022/10/23 10:10:35;;;;;;;;;;;;;;;16.24;49.73;100605.81;5068376;28;20121;-73
2022/10/23 10:13:19;;;;;;;1.77;1.10;;;;;;;16.53;48.80;100607.94;5063897;28;20011;-76
2022/10/23 10:15:52;;;;;;;2.42;1.10;;;;;;;16.58;48.82;100599.09;5059501;28;20052;-77
2022/10/23 10:18:26;;;;;;;2.63;1.40;;;;;;;16.61;49.12;100604.28;5059666;28;20463;-78
2022/10/23 10:21:08;;;;;;;3.10;1.45;;;;;;;16.63;48.76;100585.63;5070289;28;20104;-77
2022/10/23 10:23:46;;;;;;;4.13;1.30;;;;;;;16.61;48.06;100587.69;5067115;28;20043;-75
2022/10/23 10:26:26;;;;;;;3.10;1.20;;;;;;;16.64;47.91;100598.41;5060726;28;20303;-75
2022/10/23 10:29:10;;;;;;;3.58;1.40;;;;;;;16.64;48.47;100588.22;5045017;28;20387;-77
2022/10/23 10:31:50;;;;;;;2.08;1.05;;;;;;;16.65;48.02;100591.84;5050926;28;20045;-77
2022/10/23 10:34:29;;;;;;;2.17;1.30;;;;;;;16.66;48.53;100576.13;5042439;28;20052;-73
2022/10/23 10:37:05;;;;;;;3.10;1.33;;;;;;;16.67;48.28;100575.06;5057534;28;20140;-75
2022/10/23 10:39:41;;;;;;;2.63;1.20;;;;;;;16.67;48.22;100577.81;5067567;28;20044;-75
2022/10/23 10:42:38;;;;;;;2.72;1.50;;;;;;;16.66;47.69;100570.59;5046403;28;20514;-75
2022/10/23 10:45:26;;;;;;;2.22;1.20;;;;;;;16.69;48.01;100571.06;5055933;28;20036;-74
2022/10/23 10:48:07;;;;;;;3.13;1.38;;;;;;;16.69;48.03;100542.59;5049051;28;20554;-74
2022/10/23 10:51:01;;;;;;;1.75;1.10;;;;;;;16.69;48.45;100539.81;5066658;28;20597;-73
2022/10/23 10:53:54;;;;;;;2.65;1.23;;;;;;;16.72;47.93;100533.94;5050802;28;20144;-74
2022/10/23 10:56:26;;;;;;;3.13;1.33;;;;;;;16.73;48.41;100535.66;5068847;28;20056;-74
2022/10/23 10:58:58;;;;;;;3.55;1.40;;;;;;;16.71;48.17;100532.22;5056295;28;20052;-74
2022/10/23 11:01:33;;;;;;;2.85;1.40;;;;;;;16.76;47.90;100521.47;5071896;28;20045;-75
2022/10/23 11:04:10;;;;;;;4.53;1.20;;;;;;;16.77;47.96;100514.91;5065100;28;20091;-74
2022/10/23 11:06:38;;;;;;;4.72;2.15;;;;;;;16.76;48.36;100504.88;5066536;28;20047;-75
2022/10/23 11:09:17;;;;;;;2.35;1.55;;;;;;;16.79;47.57;100510.06;5064611;28;20037;-77
2022/10/23 11:11:49;;;;;;;2.50;1.20;;;;;;;16.79;48.35;100515.59;5060533;28;20047;-75
2022/10/23 11:14:19;;;;;;;2.65;1.35;;;;;;;16.80;48.44;100511.78;5048213;28;20041;-75
2022/10/23 11:16:51;;;;;;;3.25;1.25;;;;;;;16.83;47.68;100515.00;5068281;28;20098;-74
2022/10/23 11:19:23;;;;;;;3.00;1.30;;;;;;;16.82;47.91;100510.56;5066120;28;20064;-74
2022/10/23 11:22:01;;;;;;;3.70;1.15;;;;;;;16.84;47.81;100515.88;5066258;28;20084;-76
2022/10/23 11:25:08;;;;;;;3.88;1.40;;;;;;;16.79;47.98;100505.38;5049572;28;20066;-76
2022/10/23 11:28:00;;;;;;;3.22;1.30;;;;;;;16.86;47.75;100492.56;4974362;28;20133;-76
2022/10/23 11:30:44;;;;;;;3.22;1.30;;;;;;;16.87;47.67;100485.13;5029642;28;20045;-76
2022/10/23 11:34:01;;;;;;;2.50;1.52;;;;;;;16.82;47.70;100462.72;5010247;28;20052;-77
2022/10/23 11:36:47;;;;;;;2.10;1.17;;;;;;;16.86;47.62;100462.16;5000001;28;20076;-76
2022/10/23 11:39:20;;;;;;;3.45;1.40;;;;;;;16.87;47.68;100485.13;5027109;28;20408;-77
2022/10/23 11:41:52;;;;;;;2.13;1.20;;;;;;;16.88;47.36;100467.50;5022956;28;20079;-76
2022/10/23 11:44:39;;;;;;;3.17;1.30;;;;;;;16.86;46.84;100478.72;5008181;28;20073;-77
2022/10/23 11:47:27;;;;;;;3.97;1.90;;;;;;;16.87;47.34;100476.84;5024616;28;20084;-76
2022/10/23 11:50:26;;;;;;;2.42;1.10;;;;;;;16.85;47.17;100465.09;5011260;28;20216;-76
2022/10/23 11:52:57;;;;;;;2.65;1.30;;;;;;;16.86;47.68;100475.09;5004303;28;20049;-72
2022/10/23 11:56:01;;;;;;;2.50;1.10;;;;;;;16.85;47.10;100456.78;5008394;28;20109;-76
2022/10/23 11:58:42;;;;;;;2.25;1.33;;;;;;;16.87;46.70;100471.31;5027258;28;20119;-78
2022/10/23 12:01:26;;;;;;;3.80;1.23;;;;;;;16.87;46.48;100472.16;5032574;28;20525;-81
2022/10/23 12:03:57;;;;;;;3.00;1.13;;;;;;;16.87;47.77;100469.41;5059913;28;20103;-79
2022/10/23 12:06:30;;;;;;;2.78;1.27;;;;;;;16.88;47.40;100470.25;5053070;28;20048;-79
2022/10/23 12:09:02;;;;;;;2.90;1.10;;;;;;;16.90;47.70;100466.28;5087815;28;20603;-79